createdAt,value
2023-02-04T00:04:25.142Z,4.10
2023-02-04T00:09:27.912Z,3.53
2023-02-04T00:14:30.750Z,3.47
2023-02-04T00:19:35.008Z,3.70
2023-02-04T00:24:38.783Z,4.40
2023-02-04T00:29:41.661Z,3.83
2023-02-04T00:34:48.931Z,3.70
2023-02-04T00:39:52.058Z,3.10
2023-02-04T00:44:55.064Z,3.80
2023-02-04T00:50:01.086Z,6.37
2023-02-04T00:55:04.512Z,3.97
2023-02-04T01:00:08.625Z,3.30
2023-02-04T01:05:12.831Z,4.07
2023-02-04T01:10:16.220Z,4.03
2023-02-04T01:15:19.367Z,2.93
2023-02-04T01:20:23.670Z,4.40
2023-02-04T01:25:26.553Z,3.80
2023-02-04T01:30:31.194Z,4.17
2023-02-04T01:35:35.657Z,3.70
2023-02-04T01:40:38.716Z,3.70
2023-02-04T01:45:41.717Z,4.77
2023-02-04T01:50:45.878Z,3.23
2023-02-04T01:55:48.914Z,4.10
2023-02-04T02:00:52.372Z,3.53
2023-02-04T02:05:56.783Z,3.33
2023-02-04T02:11:02.158Z,4.33
2023-02-04T02:16:05.796Z,3.50
2023-02-04T02:21:11.143Z,3.13
2023-02-04T02:26:16.924Z,3.60
2023-02-04T02:31:21.817Z,3.20
2023-02-04T02:36:24.727Z,3.97
2023-02-04T02:41:28.942Z,3.17
2023-02-04T02:46:31.895Z,3.87
2023-02-04T02:51:34.754Z,2.87
2023-02-04T02:56:39.963Z,2.80
2023-02-04T03:01:43.482Z,3.63
2023-02-04T03:06:47.396Z,3.33
2023-02-04T03:11:51.639Z,2.87
2023-02-04T03:16:55.520Z,3.43
2023-02-04T03:21:58.763Z,5.07
2023-02-04T03:27:03.140Z,2.90
2023-02-04T03:32:06.527Z,3.30
2023-02-04T03:37:09.382Z,4.33
2023-02-04T03:42:13.577Z,3.47
2023-02-04T03:47:16.431Z,3.10
2023-02-04T03:52:20.268Z,2.73
2023-02-04T03:57:24.367Z,2.10
2023-02-04T04:02:27.298Z,3.50
2023-02-04T04:07:30.210Z,8.17
2023-02-04T04:12:34.414Z,3.17
2023-02-04T04:17:37.273Z,3.10
2023-02-04T04:22:40.389Z,3.00
2023-02-04T04:27:44.602Z,3.10
2023-02-04T04:32:47.408Z,3.30
2023-02-04T04:37:50.284Z,3.40
2023-02-04T04:42:54.570Z,3.53
2023-02-04T04:47:57.377Z,7.10
2023-02-04T04:53:00.225Z,4.10
2023-02-04T04:58:04.328Z,2.77
2023-02-04T05:03:07.693Z,2.80
2023-02-04T05:08:13.024Z,1.90
2023-02-04T05:13:17.179Z,3.10
2023-02-04T05:18:20.017Z,2.47
2023-02-04T05:23:22.878Z,4.33
2023-02-04T05:28:27.052Z,3.27
2023-02-04T05:33:29.872Z,2.50
2023-02-04T05:38:32.642Z,3.93
2023-02-04T05:43:36.890Z,3.20
2023-02-04T05:48:41.002Z,4.13
2023-02-04T05:53:43.904Z,2.77
2023-02-04T05:58:48.084Z,2.93
2023-02-04T06:03:50.901Z,4.47
2023-02-04T06:08:53.745Z,2.77
2023-02-04T06:13:57.956Z,3.40
2023-02-04T06:19:00.744Z,2.73
2023-02-04T06:24:05.216Z,3.83
2023-02-04T06:29:09.654Z,3.13
2023-02-04T06:34:13.994Z,3.90
2023-02-04T06:39:16.838Z,4.20
2023-02-04T06:44:20.892Z,3.20
2023-02-04T06:49:25.136Z,3.90
2023-02-04T06:54:27.937Z,4.23
2023-02-04T06:59:33.134Z,3.67
2023-02-04T07:04:35.991Z,4.43
2023-02-04T07:09:40.583Z,5.60
2023-02-04T07:14:44.849Z,4.40
2023-02-04T07:19:47.641Z,4.40
2023-02-04T07:24:50.425Z,3.43
2023-02-04T07:29:54.550Z,4.57
2023-02-04T07:34:57.423Z,5.10
2023-02-04T07:40:00.218Z,3.77
2023-02-04T07:45:04.714Z,3.93
2023-02-04T07:50:09.454Z,3.67
2023-02-04T07:55:12.231Z,4.00
2023-02-04T08:00:17.307Z,4.57
2023-02-04T08:05:20.132Z,3.77
2023-02-04T08:10:22.917Z,4.97
2023-02-04T08:15:27.113Z,5.27
2023-02-04T08:20:30.392Z,3.70
2023-02-04T08:25:33.468Z,3.53
2023-02-04T08:30:37.740Z,6.07
2023-02-04T08:35:40.551Z,2.70
2023-02-04T08:40:43.306Z,5.20
2023-02-04T08:45:47.523Z,5.63
2023-02-04T08:50:50.413Z,6.00
2023-02-04T08:55:53.280Z,4.47
2023-02-04T09:00:57.543Z,4.37
2023-02-04T09:06:00.445Z,4.17
2023-02-04T09:11:03.379Z,4.23
2023-02-04T09:16:08.125Z,4.10
2023-02-04T09:21:33.959Z,4.27
2023-02-04T09:26:36.806Z,4.17
2023-02-04T09:31:41.082Z,3.67
2023-02-04T09:36:43.992Z,4.03
2023-02-04T09:41:46.878Z,3.77
2023-02-04T09:46:52.350Z,3.37
2023-02-04T09:51:55.557Z,3.67
2023-02-04T09:56:59.478Z,6.33
2023-02-04T10:02:04.430Z,2.73
2023-02-04T10:07:11.229Z,3.40
2023-02-04T10:12:13.977Z,4.50
2023-02-04T10:17:21.965Z,3.50
2023-02-04T10:22:24.738Z,4.73
2023-02-04T10:27:27.611Z,5.07
2023-02-04T10:32:33.417Z,4.17
2023-02-04T10:37:36.245Z,5.23
2023-02-04T10:42:49.548Z,4.77
2023-02-04T10:47:55.392Z,4.53
2023-02-04T10:53:20.397Z,4.53
2023-02-04T10:58:27.213Z,4.23
2023-02-04T11:03:32.234Z,4.57
2023-02-04T11:08:36.446Z,3.83
2023-02-04T11:13:44.383Z,3.47
2023-02-04T11:18:51.452Z,4.23
2023-02-04T11:24:05.743Z,4.87
2023-02-04T11:29:17.301Z,5.30
2023-02-04T11:34:30.756Z,4.03
2023-02-04T11:39:36.638Z,4.63
2023-02-04T11:44:39.430Z,3.27
2023-02-04T11:49:43.803Z,4.60
2023-02-04T11:54:54.204Z,3.93
2023-02-04T11:59:57.126Z,4.40
2023-02-04T12:05:11.984Z,5.37
2023-02-04T12:10:25.064Z,3.53
2023-02-04T12:15:35.864Z,4.23
2023-02-04T12:20:40.587Z,4.33
2023-02-04T12:25:43.483Z,4.70
2023-02-04T12:30:46.429Z,4.10
2023-02-04T12:35:50.751Z,3.77
2023-02-04T12:40:53.607Z,5.20
2023-02-04T12:45:56.504Z,4.13
2023-02-04T12:51:00.786Z,3.60
2023-02-04T12:56:03.753Z,3.23
2023-02-04T13:01:06.740Z,4.67
2023-02-04T13:06:10.889Z,3.53
2023-02-04T13:11:13.704Z,2.27
2023-02-04T13:16:18.150Z,2.90
2023-02-04T13:21:22.349Z,2.70
2023-02-04T13:26:25.209Z,3.90
2023-02-04T13:31:28.292Z,2.70
2023-02-04T13:36:32.611Z,3.50
2023-02-04T13:41:36.113Z,2.40
2023-02-04T13:46:39.120Z,3.03
2023-02-04T13:51:44.975Z,3.57
2023-02-04T13:56:47.917Z,4.07
2023-02-04T14:01:50.898Z,3.07
2023-02-04T14:06:56.348Z,2.33
2023-02-04T14:11:59.185Z,2.53
2023-02-04T14:17:02.045Z,2.80
2023-02-04T14:22:06.362Z,2.27
2023-02-04T14:27:09.603Z,3.70
2023-02-04T14:32:12.552Z,3.03
2023-02-04T14:37:16.772Z,2.67
2023-02-04T14:42:19.600Z,4.50
2023-02-04T14:47:22.450Z,2.53
2023-02-04T14:52:26.714Z,2.40
2023-02-04T14:57:29.560Z,2.20
2023-02-04T15:02:32.542Z,2.13
2023-02-04T15:07:36.997Z,2.87
2023-02-04T15:12:39.899Z,2.20
2023-02-04T15:17:42.739Z,2.20
2023-02-04T15:22:51.725Z,2.03
2023-02-04T15:27:54.668Z,1.93
2023-02-04T15:32:57.590Z,2.10
2023-02-04T15:38:01.881Z,2.30
2023-02-04T15:43:07.292Z,2.33
2023-02-04T15:48:10.346Z,3.33
2023-02-04T15:53:14.622Z,3.17
2023-02-04T15:58:17.723Z,3.20
2023-02-04T16:03:20.620Z,3.10
2023-02-04T16:08:24.859Z,2.47
2023-02-04T16:13:27.887Z,3.10
2023-02-04T16:18:30.833Z,3.90
2023-02-04T16:23:35.111Z,3.80
2023-02-04T16:28:38.014Z,3.33
2023-02-04T16:33:41.024Z,2.93
2023-02-04T16:38:45.239Z,3.33
2023-02-04T16:43:48.111Z,4.43
2023-02-04T16:48:51.057Z,3.97
2023-02-04T16:53:55.316Z,5.70
2023-02-04T16:58:58.148Z,3.40
2023-02-04T17:04:01.051Z,3.30
2023-02-04T17:09:05.415Z,3.30
2023-02-04T17:14:10.761Z,5.00
2023-02-04T17:19:14.482Z,5.83
2023-02-04T17:24:18.794Z,3.80
2023-02-04T17:29:22.183Z,5.23
2023-02-04T17:34:25.105Z,5.03
2023-02-04T17:39:29.476Z,5.20
2023-02-04T17:44:32.433Z,3.87
2023-02-04T17:49:35.388Z,4.67
2023-02-04T17:54:39.655Z,4.13
2023-02-04T17:59:42.486Z,4.13
2023-02-04T18:04:45.452Z,5.03
2023-02-04T18:09:49.650Z,4.33
2023-02-04T18:14:52.546Z,5.97
2023-02-04T18:19:55.345Z,6.43
2023-02-04T18:24:59.571Z,6.70
2023-02-04T18:30:02.631Z,6.67
2023-02-04T18:35:26.609Z,5.40
2023-02-04T18:40:32.029Z,6.10
2023-02-04T18:45:36.621Z,5.20
2023-02-04T18:50:39.443Z,6.93
2023-02-04T18:55:47.049Z,5.63
2023-02-04T19:00:51.430Z,6.03
2023-02-04T19:05:55.721Z,5.30
2023-02-04T19:11:01.181Z,4.80
2023-02-04T19:16:08.293Z,4.83
2023-02-04T19:21:25.922Z,5.70
2023-02-04T19:26:37.080Z,5.47
2023-02-04T19:31:39.893Z,4.93
2023-02-04T19:36:42.722Z,6.87
2023-02-04T19:41:48.570Z,5.37
2023-02-04T19:46:51.356Z,5.13
2023-02-04T19:51:55.586Z,6.67
2023-02-04T19:56:59.759Z,5.53
2023-02-04T20:02:16.495Z,4.67
2023-02-04T20:07:20.588Z,4.47
2023-02-04T20:12:26.097Z,4.13
2023-02-04T20:17:37.580Z,5.00
2023-02-04T20:22:45.779Z,6.23
2023-02-04T20:27:55.344Z,4.77
2023-02-04T20:32:59.798Z,10.97
2023-02-04T20:38:11.851Z,8.70
2023-02-04T20:43:19.063Z,6.33
2023-02-04T20:48:32.669Z,5.03
2023-02-04T20:53:39.242Z,6.00
2023-02-04T20:58:45.036Z,5.10
2023-02-04T21:03:50.262Z,5.23
2023-02-04T21:08:53.929Z,5.80
2023-02-04T21:13:58.118Z,7.07
2023-02-04T21:19:00.842Z,7.20
2023-02-04T21:24:03.762Z,11.50
2023-02-04T21:29:08.092Z,9.47
2023-02-04T21:34:10.863Z,8.90
2023-02-04T21:39:13.750Z,9.50
2023-02-04T21:44:18.224Z,10.40
2023-02-04T21:49:21.050Z,10.10
2023-02-04T21:54:23.833Z,8.87
2023-02-04T21:59:28.005Z,10.47
2023-02-04T22:04:30.791Z,12.03
2023-02-04T22:09:33.651Z,11.53
2023-02-04T22:14:55.493Z,13.60
2023-02-04T22:19:58.365Z,11.80
2023-02-04T22:25:01.802Z,11.90
2023-02-04T22:30:07.546Z,10.70
2023-02-04T22:35:11.414Z,10.10
2023-02-04T22:40:15.791Z,8.57
2023-02-04T22:45:20.065Z,8.67
2023-02-04T22:50:22.833Z,8.37
2023-02-04T22:55:25.641Z,8.03
2023-02-04T23:00:29.890Z,9.17
2023-02-04T23:05:32.951Z,8.47
2023-02-04T23:10:37.593Z,9.10
2023-02-04T23:15:43.171Z,9.87
2023-02-04T23:20:45.978Z,8.43
2023-02-04T23:25:48.929Z,7.73
2023-02-04T23:30:53.160Z,9.10
2023-02-04T23:35:55.923Z,7.47
2023-02-04T23:41:00.090Z,7.80
2023-02-04T23:46:04.380Z,7.90
2023-02-04T23:51:07.319Z,8.10
2023-02-04T23:56:10.189Z,5.47
